Home > Products > Valid Products > TAF

000
FTUS42 KGSP 230540 CCA
TAFAVL
TAF COR
KAVL 230540Z 2306/2406 33011KT P6SM FEW040
     FM231600 33009KT P6SM FEW250=



000
FTUS42 KGSP 230532
TAFGSP
TAF
KGSP 230532Z 2306/2406 00000KT P6SM SKC
     FM231800 29004KT P6SM SKC
     FM240000 00000KT P6SM FEW250=



000
FTUS42 KGSP 230532
TAFAVL
TAF
KAVL 230532Z 2306/2406 33006KT P6SM FEW040
     FM231600 33009KT P6SM FEW250=



000
FTUS42 KGSP 230532
TAFCLT
TAF
KCLT 230532Z 2306/2406 33006KT P6SM SKC
     FM240100 34003KT P6SM FEW250=



000
FTUS42 KGSP 222320
TAFCLT
TAF
KCLT 222320Z 2300/2324 34010KT P6SM SKC
     FM230500 33006KT P6SM SKC=



000
FTUS42 KGSP 222320
TAFGSP
TAF
KGSP 222320Z 2300/2324 36007KT P6SM SKC
     FM231800 29004KT P6SM SKC=



000
FTUS42 KGSP 222320
TAFAVL
TAF
KAVL 222320Z 2300/2324 33011KT P6SM FEW250
     FM230100 33010KT P6SM FEW040
     FM231600 33009KT P6SM FEW250=



000
FTUS42 KGSP 222052 AAA
TAFCLT
TAF AMD
KCLT 222052Z 2221/2318 34010G15KT P6SM FEW060
     FM230000 34009KT P6SM SKC
     FM230600 33004KT P6SM SKC=



000
FTUS42 KGSP 221700
TAFCLT
TAF
KCLT 221731Z 2218/2318 34012G18KT P6SM FEW060
     FM230000 34009KT P6SM SKC
     FM230600 33004KT P6SM SKC=



000
FTUS42 KGSP 221700
TAFGSP
TAF
KGSP 221731Z 2218/2318 36010G17KT P6SM SKC
     FM230300 36005KT P6SM SKC=



000
FTUS42 KGSP 221700
TAFAVL
TAF
KAVL 221731Z 2218/2318 35013G24KT P6SM FEW040
     FM222300 33011KT P6SM FEW250
     FM230300 33008KT P6SM FEW040
      TEMPO 2308/2312 BKN020
     FM231500 33010KT P6SM FEW250=



000
FTUS42 KGSP 221700
TAFCLT
TAF
KCLT 221731Z 2218/2318 34012G18KT P6SM FEW060
     FM230000 34009KT P6SM SKC
     FM230600 33004KT P6SM SKC=



000
FTUS42 KGSP 221700
TAFAVL
TAF
KAVL 221731Z 2218/2318 35013G24KT P6SM FEW040
     FM222300 33011KT P6SM FEW250
     FM230300 33008KT P6SM FEW040
      TEMPO 2308/2312 BKN020
     FM231500 33010KT P6SM FEW250=



000
FTUS42 KGSP 221700
TAFGSP
TAF
KGSP 221731Z 2218/2318 36010G17KT P6SM SKC
     FM230300 36005KT P6SM SKC=



000
FTUS42 KGSP 221600 AAB
TAFAVL
TAF AMD
KAVL 221644Z 2217/2312 35015G23KT P6SM SCT035
     FM222300 35011KT P6SM FEW250=



000
FTUS42 KGSP 221600 AAB
TAFAVL
TAF AMD
KAVL 221644Z 2217/2312 35015G23KT P6SM SCT035
     FM222300 35011KT P6SM FEW250=



000
FTUS42 KGSP 221400 AAA
TAFAVL
TAF AMD
KAVL 221443Z 2215/2312 35015G23KT P6SM SCT035
      TEMPO 2215/2218 BKN030
     FM222300 35011KT P6SM FEW250=



000
FTUS42 KGSP 221400 AAA
TAFCLT
TAF AMD
KCLT 221437Z 2215/2312 34014G21KT P6SM SKC
     FM221800 35016G24KT P6SM FEW250
     FM230000 34005KT P6SM FEW250=



000
FTUS42 KGSP 221100
TAFAVL
TAF
KAVL 221121Z 2212/2312 34011G20KT P6SM SCT035
      TEMPO 2212/2215 BKN035
     FM221500 35013G23KT P6SM SCT040
     FM222300 35011KT P6SM FEW250=



000
FTUS42 KGSP 221100
TAFGSP
TAF
KGSP 221121Z 2212/2312 35005KT P6SM SKC
     FM221500 35009G18KT P6SM SKC
     FM230100 35004KT P6SM SKC=



000
FTUS42 KGSP 221100
TAFCLT
TAF
KCLT 221121Z 2212/2312 34008G16KT P6SM SKC
     FM221800 35009G18KT P6SM FEW250
     FM230000 34005KT P6SM FEW250=



000
FTUS42 KGSP 220900 AAA
TAFCLT
TAF AMD
KCLT 220911Z 2209/2306 36009KT P6SM SKC
     FM221800 34008G17KT P6SM FEW250
     FM230000 34005KT P6SM FEW250=



000
FTUS42 KGSP 220500
TAFCLT
TAF
KCLT 220523Z 2206/2306 34008KT P6SM SKC
     FM221800 34008G17KT P6SM FEW250
     FM230000 34005KT P6SM FEW250=



000
FTUS42 KGSP 220500
TAFGSP
TAF
KGSP 220523Z 2206/2306 34012G22KT P6SM SKC
     FM221000 34007KT P6SM SKC
     FM230100 35005KT P6SM SKC=



000
FTUS42 KGSP 220500
TAFAVL
TAF
KAVL 220523Z 2206/2306 32010G19KT P6SM FEW040
     FM221200 35013G22KT P6SM FEW025
     FM222200 35011KT P6SM SKC=



000
FTUS42 KGSP 220500
TAFGSP
TAF
KGSP 220523Z 2206/2306 34012G22KT P6SM SKC
     FM221000 34007KT P6SM SKC
     FM230100 35005KT P6SM SKC=



000
FTUS42 KGSP 220500
TAFCLT
TAF
KCLT 220523Z 2206/2306 34008KT P6SM SKC
     FM221800 34008G17KT P6SM FEW250
     FM230000 34005KT P6SM FEW250=



000
FTUS42 KGSP 220500
TAFAVL
TAF
KAVL 220523Z 2206/2306 32010G19KT P6SM FEW040
     FM221200 35013G22KT P6SM FEW025
     FM222200 35011KT P6SM SKC=



000
FTUS42 KGSP 220300 AAA
TAFGSP
TAF AMD
KGSP 220315Z 2203/2224 36010G20KT P6SM SKC
     FM220600 36007KT P6SM SKC=



000
FTUS42 KGSP 212300
TAFGSP
TAF
KGSP 212336Z 2200/2224 36006KT P6SM SKC=



000
FTUS42 KGSP 212300
TAFCLT
TAF
KCLT 212336Z 2200/2224 35008KT P6SM FEW070
     FM221800 34008G15KT P6SM FEW250=



000
FTUS42 KGSP 212300
TAFAVL
TAF
KAVL 212336Z 2200/2224 34009KT P6SM FEW040
     FM220200 34010G19KT P6SM SCT025 BKN040
     FM221200 35013G22KT P6SM FEW025
     FM222200 35011KT P6SM SKC=



000
FTUS42 KGSP 212100 AAA
TAFGSP
TAF AMD
KGSP 212102Z 2121/2218 32005KT P6SM SCT070
     FM220000 35007KT P6SM FEW050
     FM220600 35005KT P6SM SKC=



000
FTUS42 KGSP 212000 AAA
TAFCLT
TAF AMD
KCLT 212058Z 2121/2218 30008G16KT P6SM SCT070
     FM220000 34008KT P6SM SKC=



000
FTUS42 KGSP 211800 AAA
TAFGSP
TAF AMD
KGSP 211845Z 2119/2218 26005KT P6SM FEW050 FEW250
     FM212100 30010G20KT P6SM SCT050
     FM220000 35007KT P6SM FEW050
     FM220600 35005KT P6SM SKC=



000
FTUS42 KGSP 211700
TAFCLT
TAF
KCLT 211728Z 2118/2218 28006KT P6SM FEW050 FEW250
     FM212000 30010G18KT P6SM SCT045
      TEMPO 2120/2124 BKN045
     FM220000 34008KT P6SM SKC=



000
FTUS42 KGSP 211700
TAFGSP
TAF
KGSP 211728Z 2118/2218 26007G16KT P6SM FEW250
     FM212200 30010G20KT P6SM SCT060
     FM220000 35007KT P6SM FEW060
     FM220600 35005KT P6SM SKC=



000
FTUS42 KGSP 211700
TAFAVL
TAF
KAVL 211728Z 2118/2218 33010G25KT P6SM SCT045
     FM220600 33010G22KT P6SM BKN035
     FM220900 33009G18KT P6SM BKN010
     FM221500 34013G25KT P6SM FEW012 SCT040=



000
FTUS42 KGSP 211400 AAA
TAFCLT
TAF AMD
KCLT 211459Z 2115/2212 22003KT P6SM FEW250
     FM211800 28008KT P6SM FEW250
     FM212000 30010G18KT P6SM FEW050 FEW250
     FM220100 33009KT P6SM FEW250=



000
FTUS42 KGSP 211200 CCA
TAFGSP
TAF COR
KGSP 211207Z 2112/2212 36003KT P6SM SKC
     FM211800 30006KT P6SM FEW050 FEW250
     FM220000 36009KT P6SM FEW150=



000
FTUS42 KGSP 211200 CCA
TAFGSP
TAF COR
KGSP 211207Z 2112/2212 36003KT P6SM SKC
     FM211800 30006KT P6SM FEW050 FEW250
     FM220000 36009KT P6SM FEW150=



000
FTUS42 KGSP 211100
TAFAVL
TAF
KAVL 211121Z 2112/2212 00000KT P6SM FEW002
     FM211400 29006KT P6SM SCT250
     FM211800 31011KT P6SM SCT040
     FM212200 32010G26KT P6SM SCT025=



000
FTUS42 KGSP 211100
TAFGSP
TAF
KGSP 211121Z 2112/2212 00000KT 5SM BR SKC
     FM211800 30006KT P6SM FEW050 FEW250
     FM220000 36009KT P6SM FEW150=



000
FTUS42 KGSP 211100
TAFCLT
TAF
KCLT 211121Z 2112/2212 29003KT P6SM SKC
     FM211300 28005KT P6SM FEW250
     FM211900 30010G18KT P6SM FEW050 FEW250
     FM220100 33009KT P6SM FEW250=



000
FTUS42 KGSP 211100
TAFAVL
TAF
KAVL 211121Z 2112/2212 00000KT P6SM FEW002
     FM211400 29006KT P6SM SCT250
     FM211800 31011KT P6SM SCT040
     FM212200 32010G26KT P6SM SCT025=



000
FTUS42 KGSP 211100
TAFAVL
TAF
KAVL 211121Z 2112/2212 00000KT P6SM FEW002
     FM211400 29006KT P6SM SCT250
     FM211800 31011KT P6SM SCT040
     FM212200 32010G26KT P6SM SCT025=



000
FTUS42 KGSP 211100
TAFCLT
TAF
KCLT 211121Z 2112/2212 29003KT P6SM SKC
     FM211300 28005KT P6SM FEW250
     FM211900 30010G18KT P6SM FEW050 FEW250
     FM220100 33009KT P6SM FEW250=



000
FTUS42 KGSP 211100
TAFGSP
TAF
KGSP 211121Z 2112/2212 00000KT 5SM BR SKC
     FM211800 30006KT P6SM FEW050 FEW250
     FM220000 36009KT P6SM FEW150=



000
FTUS42 KGSP 211100
TAFCLT
TAF
KCLT 211121Z 2112/2212 29003KT P6SM SKC
     FM211300 28005KT P6SM FEW250
     FM211900 30010G18KT P6SM FEW050 FEW250
     FM220100 33009KT P6SM FEW250=



000
FTUS42 KGSP 211000 AAB
TAFGSP
TAF AMD
KGSP 211000Z 2110/2206 00000KT 6SM BR SKC
     FM211300 00000KT P6SM FEW250
     FM211800 30006KT P6SM FEW250
     FM220000 36009KT P6SM FEW150=



000
FTUS42 KGSP 211000 AAB
TAFGSP
TAF AMD
KGSP 211000Z 2110/2206 00000KT 6SM BR SKC
     FM211300 00000KT P6SM FEW250
     FM211800 30006KT P6SM FEW250
     FM220000 36009KT P6SM FEW150=



000
FTUS42 KGSP 210900 AAB
TAFAVL
TAF AMD
KAVL 210959Z 2110/2206 00000KT 1/4SM FG VV001
      TEMPO 2110/2114 1SM BR
     FM211400 29006KT P6SM SCT250
     FM211800 31011KT P6SM SCT045
     FM212200 32010G26KT P6SM SCT035=



000
FTUS42 KGSP 210900 AAB
TAFAVL
TAF AMD
KAVL 210959Z 2110/2206 00000KT 1/4SM FG VV001
      TEMPO 2110/2114 1SM BR
     FM211400 29006KT P6SM SCT250
     FM211800 31011KT P6SM SCT045
     FM212200 32010G26KT P6SM SCT035=



000
FTUS42 KGSP 210900 AAB
TAFAVL
TAF AMD
KAVL 210959Z 2110/2206 00000KT 1/4SM FG VV001
      TEMPO 2110/2114 1SM BR
     FM211400 29006KT P6SM SCT250
     FM211800 31011KT P6SM SCT045
     FM212200 32010G26KT P6SM SCT035=



000
FTUS42 KGSP 210900 AAA
TAFGSP
TAF AMD
KGSP 210916Z 2109/2206 00000KT 3SM BR FEW250
      TEMPO 2110/2113 1SM BR
     FM211300 00000KT P6SM FEW250
     FM211800 30006KT P6SM FEW250
     FM220000 36009KT P6SM FEW150=



000
FTUS42 KGSP 210900 AAA
TAFAVL
TAF AMD
KAVL 210914Z 2109/2206 00000KT 3/4SM BR VV001
      TEMPO 2110/2114 1SM BR
     FM211400 29006KT P6SM SCT250
     FM211800 31011KT P6SM SCT045
     FM212200 32010G26KT P6SM SCT035=



000
FTUS42 KGSP 210900 AAA
TAFAVL
TAF AMD
KAVL 210914Z 2109/2206 00000KT 3/4SM BR VV001
      TEMPO 2110/2114 1SM BR
     FM211400 29006KT P6SM SCT250
     FM211800 31011KT P6SM SCT045
     FM212200 32010G26KT P6SM SCT035=



000
FTUS42 KGSP 210800 AAA
TAFCLT
TAF AMD
KCLT 210850Z 2109/2206 29003KT P6SM FEW250
     FM211300 28005KT P6SM FEW250
     FM212000 30010G22KT P6SM FEW050
     FM220400 33009KT P6SM FEW250=



000
FTUS42 KGSP 210800 AAA
TAFCLT
TAF AMD
KCLT 210850Z 2109/2206 29003KT P6SM FEW250
     FM211300 28005KT P6SM FEW250
     FM212000 30010G22KT P6SM FEW050
     FM220400 33009KT P6SM FEW250=



000
FTUS42 KGSP 210500
TAFGSP
TAF
KGSP 210524Z 2106/2206 22003KT P6SM FEW170
     FM211100 30003KT 5SM BR FEW250
     FM211300 00000KT P6SM FEW250
     FM211800 30006KT P6SM FEW250
     FM220000 36009KT P6SM FEW150=



000
FTUS42 KGSP 210500
TAFAVL
TAF
KAVL 210524Z 2106/2206 00000KT P6SM SCT002 SCT170
     FM210800 31004KT 5SM BR SCT210
     FM211200 29005KT 1SM BR SCT250
     FM211400 29006KT P6SM SCT250
     FM211800 31011KT P6SM SCT045
     FM212200 32010G26KT P6SM SCT035=



000
FTUS42 KGSP 210500
TAFAVL
TAF
KAVL 210524Z 2106/2206 00000KT P6SM SCT002 SCT170
     FM210800 31004KT 5SM BR SCT210
     FM211200 29005KT 1SM BR SCT250
     FM211400 29006KT P6SM SCT250
     FM211800 31011KT P6SM SCT045
     FM212200 32010G26KT P6SM SCT035=



000
FTUS42 KGSP 210500
TAFCLT
TAF
KCLT 210524Z 2106/2206 18004KT P6SM SCT080
     FM211200 28005KT P6SM FEW250
     FM212000 30010G22KT P6SM FEW050
     FM220400 33009KT P6SM FEW250=



000
FTUS42 KGSP 210500
TAFCLT
TAF
KCLT 210524Z 2106/2206 18004KT P6SM SCT080
     FM211200 28005KT P6SM FEW250
     FM212000 30010G22KT P6SM FEW050
     FM220400 33009KT P6SM FEW250=



000
FTUS42 KGSP 210400 AAA
TAFAVL
TAF AMD
KAVL 210430Z 2105/2124 00000KT 1SM BR SCT002
      TEMPO 2105/2108 3SM BR
     FM210800 34003KT 3SM BR SCT250
     FM211000 34003KT 1/2SM FG SCT002
     FM211300 34006KT P6SM SCT250
     FM211800 35011G18KT P6SM SCT045=



000
FTUS42 KGSP 210400 AAA
TAFAVL
TAF AMD
KAVL 210430Z 2105/2124 00000KT 1SM BR SCT002
      TEMPO 2105/2108 3SM BR
     FM210800 34003KT 3SM BR SCT250
     FM211000 34003KT 1/2SM FG SCT002
     FM211300 34006KT P6SM SCT250
     FM211800 35011G18KT P6SM SCT045=



000
FTUS42 KGSP 210400 AAA
TAFAVL
TAF AMD
KAVL 210430Z 2105/2124 00000KT 1SM BR SCT002
      TEMPO 2105/2108 3SM BR
     FM210800 34003KT 3SM BR SCT250
     FM211000 34003KT 1/2SM FG SCT002
     FM211300 34006KT P6SM SCT250
     FM211800 35011G18KT P6SM SCT045=



000
FTUS42 KGSP 210400 AAA
TAFAVL
TAF AMD
KAVL 210430Z 2105/2124 00000KT 1SM BR SCT002
      TEMPO 2105/2108 3SM BR
     FM210800 34003KT 3SM BR SCT250
     FM211000 34003KT 1/2SM FG SCT002
     FM211300 34006KT P6SM SCT250
     FM211800 35011G18KT P6SM SCT045=



000
FTUS42 KGSP 202300
TAFGSP
TAF
KGSP 202332Z 2100/2124 23004KT P6SM SCT120 BKN250
     FM211400 27005KT P6SM FEW250
     FM212100 30008KT P6SM SCT050=



000
FTUS42 KGSP 202300
TAFCLT
TAF
KCLT 202332Z 2100/2124 20003KT P6SM SCT160 BKN250
     FM210800 28003KT P6SM SCT250
     FM211600 28008KT P6SM FEW250
     FM212100 31008KT P6SM SCT050=



000
FTUS42 KGSP 202300
TAFAVL
TAF
KAVL 202332Z 2100/2124 19003KT P6SM BKN080
     FM210600 00000KT P6SM SCT250
     FM210800 34003KT 5SM BR SCT250
     FM211000 34003KT 1/2SM FG SCT002
     FM211300 34006KT P6SM SCT250
     FM211800 35011G18KT P6SM SCT045=



000
FTUS42 KGSP 202300
TAFCLT
TAF
KCLT 202332Z 2100/2124 20003KT P6SM SCT160 BKN250
     FM210800 28003KT P6SM SCT250
     FM211600 28008KT P6SM FEW250
     FM212100 31008KT P6SM SCT050=



000
FTUS42 KGSP 202300
TAFAVL
TAF
KAVL 202332Z 2100/2124 19003KT P6SM BKN080
     FM210600 00000KT P6SM SCT250
     FM210800 34003KT 5SM BR SCT250
     FM211000 34003KT 1/2SM FG SCT002
     FM211300 34006KT P6SM SCT250
     FM211800 35011G18KT P6SM SCT045=



000
FTUS42 KGSP 202100 AAA
TAFCLT
TAF AMD
KCLT 202105Z 2021/2118 20008KT P6SM FEW045 SCT250
     FM210100 19004KT P6SM SCT100 BKN200
     FM210700 22004KT P6SM SCT250
     FM211400 30009KT P6SM SCT030=



000
FTUS42 KGSP 202100 AAA
TAFCLT
TAF AMD
KCLT 202105Z 2021/2118 20008KT P6SM FEW045 SCT250
     FM210100 19004KT P6SM SCT100 BKN200
     FM210700 22004KT P6SM SCT250
     FM211400 30009KT P6SM SCT030=



000
FTUS42 KGSP 201700
TAFAVL
TAF
KAVL 201739Z 2018/2118 20007KT P6SM FEW040 SCT250
     FM210000 22004KT P6SM BKN100
     FM211000 30007KT 1SM BR SCT100
     FM211300 30010KT P6SM SCT030 BKN100
     FM211700 30012KT P6SM SCT090=



000
FTUS42 KGSP 201700
TAFCLT
TAF
KCLT 201739Z 2018/2118 20008KT P6SM FEW045 SCT250
     FM210100 19004KT P6SM SCT100 BKN200
     FM210700 22004KT P6SM SCT250
     FM211400 30009KT P6SM SCT030=



000
FTUS42 KGSP 201700
TAFGSP
TAF
KGSP 201739Z 2018/2118 20006KT P6SM FEW040 SCT250
     FM210100 22004KT P6SM SCT100 BKN250
     FM210700 24004KT P6SM SCT250
     FM211400 30007KT P6SM SCT030=



000
FTUS42 KGSP 201700
TAFCLT
TAF
KCLT 201739Z 2018/2118 20008KT P6SM FEW045 SCT250
     FM210100 19004KT P6SM SCT100 BKN200
     FM210700 22004KT P6SM SCT250
     FM211400 30009KT P6SM SCT030=



000
FTUS42 KGSP 201700
TAFAVL
TAF
KAVL 201739Z 2018/2118 20007KT P6SM FEW040 SCT250
     FM210000 22004KT P6SM BKN100
     FM211000 30007KT 1SM BR SCT100
     FM211300 30010KT P6SM SCT030 BKN100
     FM211700 30012KT P6SM SCT090=



000
FTUS42 KGSP 201400 AAA
TAFCLT
TAF AMD
KCLT 201437Z 2015/2112 20008KT P6SM FEW050 SCT250
     FM210100 00000KT P6SM SCT150 SCT250=



000
FTUS42 KGSP 201400 AAA
TAFCLT
TAF AMD
KCLT 201437Z 2015/2112 20008KT P6SM FEW050 SCT250
     FM210100 00000KT P6SM SCT150 SCT250=



000
FTUS42 KGSP 201200 AAA
TAFAVL
TAF AMD
KAVL 201213Z 2012/2112 22003KT 5SM BR BKN240
      TEMPO 2012/2014 1/4SM FG OVC001
     FM201500 20005KT P6SM BKN250
     FM210800 32003KT 4SM BR BKN070=



000
FTUS42 KGSP 201200 AAA
TAFAVL
TAF AMD
KAVL 201213Z 2012/2112 22003KT 5SM BR BKN240
      TEMPO 2012/2014 1/4SM FG OVC001
     FM201500 20005KT P6SM BKN250
     FM210800 32003KT 4SM BR BKN070=



000
FTUS42 KGSP 201100
TAFAVL
TAF
KAVL 201134Z 2012/2112 22003KT P6SM BKN240
      TEMPO 2012/2014 5SM BR
     FM201500 20005KT P6SM BKN250
     FM210800 32003KT 4SM BR BKN070=



000
FTUS42 KGSP 201100
TAFCLT
TAF
KCLT 201134Z 2012/2112 00000KT P6SM BKN240
     FM201400 19006KT P6SM FEW050 SCT250
     FM210100 00000KT P6SM SCT250=



000
FTUS42 KGSP 201100
TAFAVL
TAF
KAVL 201134Z 2012/2112 22003KT P6SM BKN240
      TEMPO 2012/2014 5SM BR
     FM201500 20005KT P6SM BKN250
     FM210800 32003KT 4SM BR BKN070=



000
FTUS42 KGSP 201100
TAFCLT
TAF
KCLT 201134Z 2012/2112 00000KT P6SM BKN240
     FM201400 19006KT P6SM FEW050 SCT250
     FM210100 00000KT P6SM SCT250=



000
FTUS42 KGSP 201100
TAFGSP
TAF
KGSP 201134Z 2012/2112 00000KT P6SM BKN250
     FM201500 20006KT P6SM FEW050 FEW210
     FM210200 00000KT P6SM SCT210=



    US Dept of Commerce
    National Oceanic and Atmospheric Administration
    National Weather Service
    1325 East West Highway
    Silver Spring, MD 20910
    Page Author: NWS Internet Services Team
Disclaimer
Information Quality
Credits
Glossary
Privacy Policy
Freedom of Information Act (FOIA)
About Us
Career Opportunities